createdAt,value
2018-12-14T00:01:26.917Z,12.40
2018-12-14T00:03:31.771Z,12.07
2018-12-14T00:05:35.952Z,12.40
2018-12-14T00:07:41.197Z,12.17
2018-12-14T00:09:45.886Z,11.47
2018-12-14T00:11:50.679Z,12.03
2018-12-14T00:13:55.666Z,12.97
2018-12-14T00:16:00.318Z,12.50
2018-12-14T00:18:05.092Z,12.87
2018-12-14T00:20:10.860Z,11.90
2018-12-14T00:22:14.854Z,12.53
2018-12-14T00:24:18.854Z,12.57
2018-12-14T00:26:23.862Z,12.13
2018-12-14T00:28:28.997Z,11.50
2018-12-14T00:30:33.624Z,12.20
2018-12-14T00:32:37.713Z,13.20
2018-12-14T00:34:44.844Z,12.90
2018-12-14T00:36:49.369Z,13.23
2018-12-14T00:38:59.818Z,12.70
2018-12-14T00:41:03.984Z,13.07
2018-12-14T00:43:08.118Z,13.87
2018-12-14T00:45:15.048Z,13.63
2018-12-14T00:47:19.468Z,12.87
2018-12-14T00:49:23.638Z,11.70
2018-12-14T00:51:29.090Z,13.07
2018-12-14T00:53:33.853Z,13.27
2018-12-14T00:55:39.880Z,13.90
2018-12-14T00:57:50.867Z,13.77
2018-12-14T00:59:56.098Z,13.03
2018-12-14T01:02:00.134Z,12.70
2018-12-14T01:04:04.846Z,11.43
2018-12-14T01:06:09.450Z,11.60
2018-12-14T01:08:17.112Z,11.33
2018-12-14T01:10:21.659Z,11.40
2018-12-14T01:12:25.682Z,12.33
2018-12-14T01:14:29.944Z,11.63
2018-12-14T01:16:34.953Z,11.60
2018-12-14T01:18:39.915Z,12.00
2018-12-14T01:20:44.162Z,12.23
2018-12-14T01:22:48.702Z,13.03
2018-12-14T01:24:52.813Z,11.87
2018-12-14T01:26:57.500Z,11.70
2018-12-14T01:29:02.235Z,11.20
2018-12-14T01:31:07.405Z,11.50
2018-12-14T01:33:12.993Z,11.80
2018-12-14T01:35:17.314Z,10.93
2018-12-14T01:37:21.959Z,11.40
2018-12-14T01:39:26.350Z,11.00
2018-12-14T01:41:33.142Z,11.53
2018-12-14T01:43:39.873Z,10.83
2018-12-14T01:45:44.792Z,11.53
2018-12-14T01:47:49.365Z,12.17
2018-12-14T01:49:53.907Z,12.30
2018-12-14T01:51:58.159Z,12.17
2018-12-14T01:54:02.215Z,12.27
2018-12-14T01:56:06.198Z,11.50
2018-12-14T01:58:12.710Z,11.60
2018-12-14T02:00:16.911Z,12.57
2018-12-14T02:02:22.048Z,12.47
2018-12-14T02:04:26.375Z,10.77
2018-12-14T02:06:32.162Z,11.47
2018-12-14T02:08:36.189Z,11.93
2018-12-14T02:10:40.276Z,11.50
2018-12-14T02:12:44.411Z,11.53
2018-12-14T02:14:48.518Z,11.13
2018-12-14T02:16:54.447Z,11.53
2018-12-14T02:18:58.623Z,11.80
2018-12-14T02:21:03.222Z,10.67
2018-12-14T02:23:08.927Z,10.80
2018-12-14T02:25:14.732Z,9.43
2018-12-14T02:27:19.876Z,10.63
2018-12-14T02:29:24.893Z,9.50
2018-12-14T02:31:29.502Z,10.17
2018-12-14T02:33:35.546Z,9.73
2018-12-14T02:35:39.777Z,9.77
2018-12-14T02:37:44.153Z,9.10
2018-12-14T02:39:48.693Z,8.67
2018-12-14T02:41:52.766Z,9.87
2018-12-14T02:43:59.342Z,9.73
2018-12-14T02:46:09.282Z,8.87
2018-12-14T02:48:14.184Z,10.63
2018-12-14T02:50:18.196Z,10.83
2018-12-14T02:52:22.901Z,10.67
2018-12-14T02:54:27.233Z,10.70
2018-12-14T02:56:31.375Z,9.87
2018-12-14T02:58:35.683Z,10.13
2018-12-14T03:00:39.784Z,9.73
2018-12-14T03:02:45.411Z,10.30
2018-12-14T03:04:49.539Z,9.97
2018-12-14T03:06:56.598Z,8.97
2018-12-14T03:09:01.476Z,9.67
2018-12-14T03:11:06.133Z,9.67
2018-12-14T03:13:11.628Z,9.73
2018-12-14T03:15:16.348Z,10.33
2018-12-14T03:17:21.274Z,10.87
2018-12-14T03:19:25.427Z,10.27
2018-12-14T03:21:32.626Z,10.47
2018-12-14T03:23:38.744Z,9.73
2018-12-14T03:25:43.058Z,9.43
2018-12-14T03:27:50.460Z,9.37
2018-12-14T03:29:56.692Z,10.67
2018-12-14T03:32:00.993Z,10.40
2018-12-14T03:34:06.325Z,10.60
2018-12-14T03:36:11.909Z,10.73
2018-12-14T03:38:17.046Z,10.40
2018-12-14T03:40:23.489Z,10.33
2018-12-14T03:42:34.342Z,10.90
2018-12-14T03:44:35.811Z,10.20
2018-12-14T03:46:49.513Z,9.60
2018-12-14T03:49:00.283Z,10.23
2018-12-14T03:51:05.134Z,10.30
2018-12-14T03:53:34.317Z,9.47
2018-12-14T03:57:53.581Z,10.87
2018-12-14T03:59:58.190Z,10.03
2018-12-14T04:02:02.303Z,9.87
2018-12-14T04:04:07.050Z,9.97
2018-12-14T04:06:11.793Z,10.00
2018-12-14T04:08:16.545Z,9.83
2018-12-14T04:10:20.459Z,10.50
2018-12-14T04:12:25.265Z,11.77
2018-12-14T04:14:29.304Z,11.37
2018-12-14T04:16:33.377Z,11.57
2018-12-14T04:18:37.803Z,10.63
2018-12-14T04:20:42.308Z,11.40
2018-12-14T04:22:46.810Z,12.57
2018-12-14T04:24:51.730Z,12.03
2018-12-14T04:26:57.271Z,11.93
2018-12-14T04:29:01.969Z,11.73
2018-12-14T04:31:05.991Z,11.43
2018-12-14T04:33:11.906Z,11.33
2018-12-14T04:35:16.036Z,11.40
2018-12-14T04:37:20.798Z,11.07
2018-12-14T04:39:31.244Z,10.93
2018-12-14T04:41:35.758Z,11.67
2018-12-14T04:43:43.366Z,9.60
2018-12-14T04:45:47.923Z,11.00
2018-12-14T04:48:03.661Z,11.40
2018-12-14T04:50:11.395Z,11.80
2018-12-14T04:52:25.916Z,10.80
2018-12-14T04:54:36.776Z,11.50
2018-12-14T04:56:49.536Z,11.07
2018-12-14T04:59:00.404Z,11.10
2018-12-14T05:04:11.145Z,11.00
2018-12-14T05:06:17.316Z,11.37
2018-12-14T05:08:22.218Z,11.20
2018-12-14T05:10:26.776Z,10.97
2018-12-14T05:12:30.654Z,10.80
2018-12-14T05:14:34.828Z,11.47
2018-12-14T05:16:38.871Z,10.10
2018-12-14T05:18:43.043Z,11.90
2018-12-14T05:20:47.164Z,10.00
2018-12-14T05:22:51.328Z,11.90
2018-12-14T05:24:58.642Z,11.67
2018-12-14T05:27:03.106Z,11.47
2018-12-14T05:29:13.538Z,11.70
2018-12-14T05:31:18.916Z,12.07
2018-12-14T05:33:23.108Z,11.47
2018-12-14T05:35:27.888Z,10.63
2018-12-14T05:37:32.793Z,10.10
2018-12-14T05:39:36.906Z,11.90
2018-12-14T05:41:41.653Z,11.87
2018-12-14T05:43:46.977Z,10.87
2018-12-14T05:45:51.098Z,11.50
2018-12-14T05:47:55.289Z,11.63
2018-12-14T05:49:59.608Z,11.77
2018-12-14T05:52:04.418Z,11.40
2018-12-14T05:54:08.904Z,12.40
2018-12-14T05:56:13.503Z,12.03
2018-12-14T05:58:17.586Z,11.27
2018-12-14T06:00:23.417Z,10.60
2018-12-14T06:02:27.869Z,12.00
2018-12-14T06:04:31.762Z,12.20
2018-12-14T06:06:35.624Z,12.00
2018-12-14T06:08:42.682Z,12.63
2018-12-14T06:10:48.225Z,12.20
2018-12-14T06:12:52.451Z,11.57
2018-12-14T06:14:59.306Z,10.23
2018-12-14T06:17:03.814Z,11.73
2018-12-14T06:19:08.378Z,12.43
2018-12-14T06:21:12.837Z,12.57
2018-12-14T06:23:17.407Z,12.53
2018-12-14T06:25:22.015Z,12.20
2018-12-14T06:27:26.085Z,11.90
2018-12-14T06:29:30.473Z,12.50
2018-12-14T06:31:36.366Z,12.77
2018-12-14T06:33:42.464Z,12.63
2018-12-14T06:35:46.532Z,12.97
2018-12-14T06:38:05.435Z,11.90
2018-12-14T06:40:11.660Z,12.63
2018-12-14T06:42:17.591Z,11.60
2018-12-14T06:44:21.707Z,13.00
2018-12-14T06:46:28.367Z,13.13
2018-12-14T06:48:33.431Z,12.87
2018-12-14T06:50:37.436Z,11.30
2018-12-14T06:52:42.287Z,12.40
2018-12-14T06:54:47.205Z,11.47
2018-12-14T06:56:51.283Z,11.70
2018-12-14T06:58:56.346Z,11.93
2018-12-14T07:01:05.843Z,11.37
2018-12-14T07:03:10.058Z,12.33
2018-12-14T07:05:14.633Z,11.40
2018-12-14T07:07:18.778Z,12.13
2018-12-14T07:09:22.871Z,12.23
2018-12-14T07:11:27.464Z,12.70
2018-12-14T07:13:33.094Z,12.00
2018-12-14T07:15:45.403Z,11.47
2018-12-14T07:17:50.884Z,12.97
2018-12-14T07:19:55.007Z,12.63
2018-12-14T07:21:59.740Z,12.13
2018-12-14T07:24:04.458Z,12.33
2018-12-14T07:26:08.966Z,11.20
2018-12-14T07:28:15.811Z,10.13
2018-12-14T07:30:27.710Z,12.27
2018-12-14T07:32:32.882Z,12.77
2018-12-14T07:34:38.118Z,13.40
2018-12-14T07:36:44.735Z,13.00
2018-12-14T07:38:48.832Z,12.77
2018-12-14T07:40:53.497Z,12.20
2018-12-14T07:42:59.610Z,13.30
2018-12-14T07:45:05.719Z,14.07
2018-12-14T07:47:11.824Z,14.23
2018-12-14T07:49:26.815Z,13.50
2018-12-14T07:51:30.756Z,12.27
2018-12-14T07:53:36.437Z,12.60
2018-12-14T07:55:41.039Z,12.83
2018-12-14T07:57:46.129Z,13.37
2018-12-14T07:59:50.841Z,13.33
2018-12-14T08:01:55.366Z,12.77
2018-12-14T08:04:00.324Z,12.73
2018-12-14T08:06:05.192Z,13.43
2018-12-14T08:08:14.404Z,12.90
2018-12-14T08:10:18.570Z,13.87
2018-12-14T08:12:23.694Z,13.13
2018-12-14T08:14:30.270Z,13.57
2018-12-14T08:16:37.694Z,13.77
2018-12-14T08:18:42.234Z,13.10
2018-12-14T08:20:47.803Z,14.30
2018-12-14T08:22:54.690Z,13.40
2018-12-14T08:25:09.241Z,13.33
2018-12-14T08:27:19.988Z,13.20
2018-12-14T08:29:23.999Z,13.90
2018-12-14T08:34:02.215Z,13.17
2018-12-14T08:36:06.473Z,13.87
2018-12-14T08:38:10.469Z,13.13
2018-12-14T08:40:19.059Z,12.63
2018-12-14T08:42:23.341Z,13.10
2018-12-14T08:44:27.454Z,12.33
2018-12-14T08:46:38.411Z,11.13
2018-12-14T08:48:42.507Z,12.47
2018-12-14T08:50:47.359Z,13.30
2018-12-14T08:52:51.571Z,12.87
2018-12-14T08:54:55.865Z,13.77
2018-12-14T08:57:00.027Z,13.63
2018-12-14T08:59:04.234Z,12.23
2018-12-14T09:01:08.425Z,13.57
2018-12-14T09:03:13.233Z,14.30
2018-12-14T09:05:18.561Z,13.80
2018-12-14T09:07:24.753Z,12.77
2018-12-14T09:09:29.690Z,13.70
2018-12-14T09:11:33.987Z,14.80
2018-12-14T09:13:38.018Z,14.27
2018-12-14T09:15:42.120Z,13.73
2018-12-14T09:17:46.405Z,12.87
2018-12-14T09:19:51.294Z,14.00
2018-12-14T09:21:56.470Z,14.53
2018-12-14T09:24:01.762Z,14.70
2018-12-14T09:26:06.526Z,12.87
2018-12-14T09:28:13.755Z,14.10
2018-12-14T09:30:26.170Z,13.67
2018-12-14T09:32:32.090Z,14.37
2018-12-14T09:34:38.911Z,15.00
2018-12-14T09:36:43.700Z,14.67
2018-12-14T09:38:48.695Z,13.40
2018-12-14T09:40:55.073Z,13.80
2018-12-14T09:43:00.335Z,15.10
2018-12-14T09:45:08.120Z,13.53
2018-12-14T09:47:11.978Z,15.13
2018-12-14T09:49:22.464Z,13.87
2018-12-14T09:51:27.961Z,14.90
2018-12-14T09:53:34.085Z,15.27
2018-12-14T09:55:41.106Z,12.87
2018-12-14T09:57:46.740Z,13.00
2018-12-14T09:59:51.029Z,13.47
2018-12-14T10:01:56.465Z,13.00
2018-12-14T10:04:00.745Z,12.87
2018-12-14T10:06:05.761Z,13.77
2018-12-14T10:08:15.149Z,13.47
2018-12-14T10:10:19.078Z,14.33
2018-12-14T10:12:23.458Z,11.73
2018-12-14T10:14:30.395Z,13.67
2018-12-14T10:16:37.575Z,13.43
2018-12-14T10:18:43.448Z,13.73
2018-12-14T10:20:48.849Z,15.03
2018-12-14T10:22:53.584Z,14.90
2018-12-14T10:24:57.527Z,14.07
2018-12-14T10:27:03.821Z,14.50
2018-12-14T10:29:10.049Z,13.67
2018-12-14T10:31:16.566Z,11.97
2018-12-14T10:33:20.729Z,14.57
2018-12-14T10:35:25.816Z,15.27
2018-12-14T10:37:31.708Z,13.80
2018-12-14T10:39:37.682Z,14.67
2018-12-14T10:41:42.897Z,14.57
2018-12-14T10:43:47.871Z,14.03
2018-12-14T10:45:56.806Z,14.33
2018-12-14T10:48:00.948Z,14.30
2018-12-14T10:50:07.570Z,15.60
2018-12-14T10:52:13.471Z,13.50
2018-12-14T10:54:18.517Z,15.00
2018-12-14T10:56:26.962Z,13.03
2018-12-14T10:58:34.450Z,12.37
2018-12-14T11:00:44.662Z,14.03
2018-12-14T11:02:48.824Z,15.10
2018-12-14T11:04:53.786Z,14.07
2018-12-14T11:06:58.056Z,14.50
2018-12-14T11:09:04.778Z,15.33
2018-12-14T11:11:10.862Z,13.10
2018-12-14T11:13:18.442Z,14.53
2018-12-14T11:15:26.483Z,15.43
2018-12-14T11:17:36.514Z,15.33
2018-12-14T11:19:41.583Z,14.90
2018-12-14T11:21:47.668Z,15.30
2018-12-14T11:23:54.396Z,15.17
2018-12-14T11:25:58.527Z,13.30
2018-12-14T11:28:04.195Z,14.13
2018-12-14T11:30:15.820Z,13.73
2018-12-14T11:32:20.996Z,14.10
2018-12-14T11:34:29.794Z,14.40
2018-12-14T11:36:39.276Z,15.43
2018-12-14T11:38:48.146Z,14.83
2018-12-14T11:40:56.332Z,14.77
2018-12-14T11:43:08.798Z,15.40
2018-12-14T11:45:26.798Z,14.30
2018-12-14T11:47:38.063Z,13.97
2018-12-14T11:49:46.566Z,14.50
2018-12-14T11:51:53.769Z,14.87
2018-12-14T11:54:00.172Z,15.20
2018-12-14T11:56:06.531Z,14.87
2018-12-14T11:58:16.604Z,15.37
2018-12-14T12:00:23.342Z,14.07
2018-12-14T12:02:31.331Z,13.00
2018-12-14T12:04:44.980Z,14.93
2018-12-14T12:06:57.425Z,13.97
2018-12-14T12:09:09.612Z,16.83
2018-12-14T12:11:15.987Z,14.60
2018-12-14T12:13:20.961Z,15.30
2018-12-14T12:15:26.749Z,16.40
2018-12-14T12:17:31.719Z,16.20
2018-12-14T12:21:50.575Z,15.20
2018-12-14T12:23:59.524Z,15.83
2018-12-14T12:26:06.992Z,15.13
2018-12-14T12:28:19.275Z,15.43
2018-12-14T12:30:25.334Z,15.23
2018-12-14T12:32:32.053Z,15.13
2018-12-14T12:34:41.619Z,13.87
2018-12-14T12:36:58.396Z,15.20
2018-12-14T12:39:06.914Z,15.27
2018-12-14T12:41:19.317Z,14.87
2018-12-14T12:43:29.110Z,15.63
2018-12-14T12:45:33.981Z,15.60
2018-12-14T12:47:39.441Z,14.87
2018-12-14T12:49:46.070Z,15.23
2018-12-14T12:51:50.217Z,16.13
2018-12-14T12:53:56.176Z,14.37
2018-12-14T12:56:04.983Z,15.80
2018-12-14T12:58:12.066Z,14.50
2018-12-14T13:00:16.711Z,14.43
2018-12-14T13:02:21.123Z,14.90
2018-12-14T13:04:25.216Z,13.90
2018-12-14T13:06:29.325Z,13.90
2018-12-14T13:08:33.927Z,14.93
2018-12-14T13:10:43.337Z,14.27
2018-12-14T13:12:48.514Z,15.37
2018-12-14T13:14:57.609Z,16.00
2018-12-14T13:17:11.414Z,16.40
2018-12-14T13:19:16.669Z,15.03
2018-12-14T13:21:20.915Z,16.60
2018-12-14T13:23:25.452Z,16.37
2018-12-14T13:25:29.487Z,14.87
2018-12-14T13:27:37.087Z,15.27
2018-12-14T13:29:41.232Z,14.93
2018-12-14T13:31:56.575Z,15.03
2018-12-14T13:34:04.606Z,14.83
2018-12-14T13:36:10.817Z,13.33
2018-12-14T13:38:16.256Z,13.60
2018-12-14T13:40:24.240Z,14.23
2018-12-14T13:42:29.400Z,15.07
2018-12-14T13:44:33.751Z,14.23
2018-12-14T13:46:43.472Z,13.83
2018-12-14T13:48:50.402Z,14.53
2018-12-14T13:50:55.570Z,14.87
2018-12-14T13:53:01.641Z,15.27
2018-12-14T13:55:05.733Z,14.30
2018-12-14T13:57:12.171Z,14.50
2018-12-14T13:59:17.951Z,13.70
2018-12-14T14:01:22.697Z,14.93
2018-12-14T14:03:26.804Z,15.00
2018-12-14T14:05:31.046Z,16.37
2018-12-14T14:07:37.814Z,15.27
2018-12-14T14:09:45.311Z,15.77
2018-12-14T14:11:49.287Z,15.00
2018-12-14T14:13:57.562Z,15.70
2018-12-14T14:16:02.858Z,16.30
2018-12-14T14:18:08.635Z,16.47
2018-12-14T14:20:13.726Z,15.70
2018-12-14T14:22:19.768Z,15.97
2018-12-14T14:24:28.023Z,15.70
2018-12-14T14:26:44.448Z,15.13
2018-12-14T14:28:49.061Z,12.97
2018-12-14T14:30:58.600Z,15.20
2018-12-14T14:33:06.387Z,14.73
2018-12-14T14:35:14.676Z,14.47
2018-12-14T14:37:19.554Z,14.27
2018-12-14T14:39:25.190Z,13.60
2018-12-14T14:41:29.410Z,13.97
2018-12-14T14:43:35.398Z,13.37
2018-12-14T14:45:43.006Z,13.53
2018-12-14T14:47:47.442Z,13.70
2018-12-14T14:49:52.511Z,14.27
2018-12-14T14:52:02.417Z,12.83
2018-12-14T14:54:07.006Z,13.90
2018-12-14T14:56:11.678Z,14.57
2018-12-14T14:58:18.017Z,14.23
2018-12-14T15:00:25.443Z,15.00
2018-12-14T15:02:31.892Z,14.20
2018-12-14T15:04:36.416Z,14.63
2018-12-14T15:06:40.487Z,13.97
2018-12-14T15:08:48.567Z,13.43
2018-12-14T15:10:56.483Z,14.77
2018-12-14T15:13:01.027Z,14.30
2018-12-14T15:15:07.245Z,15.03
2018-12-14T15:17:14.935Z,15.03
2018-12-14T15:19:22.795Z,13.53
2018-12-14T15:21:33.588Z,14.40
2018-12-14T15:23:38.356Z,13.60
2018-12-14T15:25:44.251Z,12.47
2018-12-14T15:29:58.371Z,14.03
2018-12-14T15:32:10.523Z,13.80
2018-12-14T15:34:14.710Z,13.57
2018-12-14T15:36:20.799Z,13.27
2018-12-14T15:38:29.084Z,12.83
2018-12-14T15:40:35.846Z,12.30
2018-12-14T15:42:40.426Z,13.20
2018-12-14T15:44:45.462Z,13.23
2018-12-14T15:46:50.463Z,13.80
2018-12-14T15:48:57.412Z,13.60
2018-12-14T15:51:02.745Z,13.57
2018-12-14T15:53:07.015Z,14.00
2018-12-14T15:55:10.927Z,13.43
2018-12-14T15:57:15.638Z,14.30
2018-12-14T15:59:21.039Z,13.67
2018-12-14T16:01:27.274Z,13.47
2018-12-14T16:03:31.207Z,12.97
2018-12-14T16:05:36.191Z,13.63
2018-12-14T16:07:43.489Z,13.43
2018-12-14T16:09:48.504Z,12.70
2018-12-14T16:11:53.120Z,12.90
2018-12-14T16:13:58.367Z,14.43
2018-12-14T16:16:03.390Z,13.50
2018-12-14T16:18:08.403Z,13.33
2018-12-14T16:20:12.356Z,14.03
2018-12-14T16:22:16.270Z,13.83
2018-12-14T16:24:21.424Z,13.73
2018-12-14T16:26:26.335Z,15.43
2018-12-14T16:28:31.069Z,12.50
2018-12-14T16:30:36.057Z,14.60
2018-12-14T16:32:44.590Z,13.90
2018-12-14T16:34:49.175Z,13.60
2018-12-14T16:36:54.027Z,13.97
2018-12-14T16:38:58.283Z,14.87
2018-12-14T16:41:04.183Z,14.27
2018-12-14T16:43:15.555Z,13.37
2018-12-14T16:45:26.410Z,12.43
2018-12-14T16:47:27.617Z,14.10
2018-12-14T16:49:34.870Z,14.60
2018-12-14T16:51:40.340Z,14.03
2018-12-14T16:53:50.219Z,13.90
2018-12-14T16:55:57.164Z,13.47
2018-12-14T16:58:02.344Z,14.73
2018-12-14T17:00:09.231Z,15.33
2018-12-14T17:02:16.402Z,13.77
2018-12-14T17:04:25.162Z,14.70
2018-12-14T17:06:31.574Z,14.80
2018-12-14T17:08:38.973Z,14.53
2018-12-14T17:10:44.791Z,14.17
2018-12-14T17:12:49.737Z,13.67
2018-12-14T17:15:12.049Z,14.57
2018-12-14T17:17:21.379Z,14.67
2018-12-14T17:19:28.455Z,14.50
2018-12-14T17:21:33.271Z,15.40
2018-12-14T17:23:43.344Z,14.33
2018-12-14T17:25:50.355Z,13.63
2018-12-14T17:27:55.679Z,13.67
2018-12-14T17:30:00.264Z,14.30
2018-12-14T17:32:04.289Z,14.27
2018-12-14T17:34:08.359Z,16.10
2018-12-14T17:36:14.285Z,14.07
2018-12-14T17:38:19.001Z,15.27
2018-12-14T17:40:23.212Z,14.67
2018-12-14T17:42:30.419Z,15.30
2018-12-14T17:44:35.445Z,14.40
2018-12-14T17:46:39.592Z,15.90
2018-12-14T17:48:45.771Z,14.83
2018-12-14T17:50:54.406Z,14.37
2018-12-14T17:52:59.611Z,14.67
2018-12-14T17:55:06.754Z,13.07
2018-12-14T17:57:10.708Z,14.27
2018-12-14T17:59:15.467Z,14.13
2018-12-14T18:01:20.701Z,12.00
2018-12-14T18:03:26.469Z,13.80
2018-12-14T18:05:30.632Z,13.47
2018-12-14T18:07:36.577Z,14.03
2018-12-14T18:09:41.786Z,13.57
2018-12-14T18:11:45.652Z,12.47
2018-12-14T18:13:51.778Z,13.10
2018-12-14T18:15:57.551Z,12.93
2018-12-14T18:18:01.680Z,12.97
2018-12-14T18:20:19.071Z,13.83
2018-12-14T18:22:27.565Z,12.53
2018-12-14T18:24:31.468Z,13.20
2018-12-14T18:26:35.588Z,12.60
2018-12-14T18:28:40.358Z,14.27
2018-12-14T18:30:50.752Z,14.60
2018-12-14T18:33:02.432Z,13.97
2018-12-14T18:35:08.468Z,13.53
2018-12-14T18:37:13.300Z,13.43
2018-12-14T18:39:19.794Z,14.00
2018-12-14T18:41:24.944Z,13.87
2018-12-14T18:43:29.139Z,14.30
2018-12-14T18:45:34.420Z,14.13
2018-12-14T18:47:39.141Z,14.10
2018-12-14T18:49:43.363Z,13.67
2018-12-14T18:51:48.165Z,14.40
2018-12-14T18:53:56.664Z,14.77
2018-12-14T18:56:02.253Z,15.00
2018-12-14T18:58:08.941Z,15.23
2018-12-14T19:00:17.644Z,14.77
2018-12-14T19:02:21.751Z,15.10
2018-12-14T19:04:28.066Z,14.30
2018-12-14T19:06:37.202Z,14.57
2018-12-14T19:08:43.276Z,15.00
2018-12-14T19:10:52.115Z,13.97
2018-12-14T19:12:58.086Z,15.00
2018-12-14T19:15:02.692Z,14.13
2018-12-14T19:17:08.324Z,15.33
2018-12-14T19:19:12.455Z,14.53
2018-12-14T19:21:19.515Z,15.07
2018-12-14T19:23:28.976Z,13.93
2018-12-14T19:25:33.043Z,13.93
2018-12-14T19:27:39.872Z,14.00
2018-12-14T19:29:45.418Z,14.33
2018-12-14T19:31:51.545Z,13.60
2018-12-14T19:33:57.735Z,13.97
2018-12-14T19:36:04.648Z,13.90
2018-12-14T19:38:09.391Z,15.17
2018-12-14T19:40:14.183Z,13.43
2018-12-14T19:42:19.936Z,13.27
2018-12-14T19:44:24.358Z,13.53
2018-12-14T19:46:29.626Z,13.87
2018-12-14T19:48:58.012Z,13.43
2018-12-14T19:51:04.347Z,13.07
2018-12-14T19:53:16.683Z,13.27
2018-12-14T19:55:22.613Z,13.30
2018-12-14T19:57:28.539Z,13.47
2018-12-14T19:59:34.234Z,13.40
2018-12-14T20:01:38.810Z,13.70
2018-12-14T20:03:53.547Z,13.70
2018-12-14T20:06:04.957Z,12.83
2018-12-14T20:08:20.269Z,14.13
2018-12-14T20:10:32.881Z,14.30
2018-12-14T20:12:43.521Z,13.90
2018-12-14T20:14:55.214Z,13.23
2018-12-14T20:17:04.538Z,12.90
2018-12-14T20:19:11.478Z,14.37
2018-12-14T20:21:26.289Z,13.47
2018-12-14T20:23:39.589Z,13.80
2018-12-14T20:25:51.546Z,15.37
2018-12-14T20:28:00.767Z,13.77
2018-12-14T20:30:14.844Z,13.60
2018-12-14T20:32:31.327Z,13.83
2018-12-14T20:34:41.137Z,13.73
2018-12-14T20:36:56.770Z,14.60
2018-12-14T20:39:08.301Z,14.97
2018-12-14T20:41:22.565Z,15.13
2018-12-14T20:43:39.423Z,13.80
2018-12-14T20:45:56.279Z,14.47
2018-12-14T20:48:14.574Z,12.67
2018-12-14T20:53:06.318Z,14.30
2018-12-14T20:55:34.447Z,14.00
2018-12-14T20:57:57.115Z,12.43
2018-12-14T21:13:52.228Z,13.83
2018-12-14T21:16:03.964Z,14.53
2018-12-14T21:18:11.492Z,14.80
2018-12-14T21:20:18.717Z,15.53
2018-12-14T21:22:27.875Z,15.90
2018-12-14T21:24:42.071Z,15.17
2018-12-14T21:26:52.156Z,16.90
2018-12-14T21:28:59.332Z,16.43
2018-12-14T21:31:03.554Z,17.53
2018-12-14T21:33:09.406Z,17.97
2018-12-14T21:35:13.489Z,17.20
2018-12-14T21:37:18.621Z,17.97
2018-12-14T21:39:24.736Z,17.07
2018-12-14T21:43:46.677Z,17.50
2018-12-14T21:48:50.164Z,16.03
2018-12-14T21:50:56.876Z,16.73
2018-12-14T21:53:01.464Z,17.60
2018-12-14T21:55:07.232Z,17.30
2018-12-14T21:57:14.815Z,17.17
2018-12-14T21:59:22.709Z,17.57
2018-12-14T22:01:35.916Z,17.40
2018-12-14T22:03:42.394Z,16.63
2018-12-14T22:05:52.993Z,16.40
2018-12-14T22:07:59.888Z,16.97
2018-12-14T22:10:05.263Z,15.90
2018-12-14T22:12:12.118Z,15.43
2018-12-14T22:14:18.515Z,15.53
2018-12-14T22:16:25.374Z,16.13
2018-12-14T22:18:30.018Z,15.30
2018-12-14T22:23:18.393Z,15.30
2018-12-14T22:25:24.336Z,15.87
2018-12-14T22:27:29.646Z,15.63
2018-12-14T22:29:34.079Z,15.67
2018-12-14T22:31:38.385Z,15.37
2018-12-14T22:33:45.581Z,16.40
2018-12-14T22:35:52.800Z,15.60
2018-12-14T22:37:57.793Z,16.77
2018-12-14T22:40:03.530Z,16.07
2018-12-14T22:42:07.890Z,15.73
2018-12-14T22:44:13.297Z,16.53
2018-12-14T22:46:18.196Z,15.97
2018-12-14T22:48:22.554Z,15.90
2018-12-14T22:50:27.726Z,16.10
2018-12-14T22:52:36.976Z,15.40
2018-12-14T22:54:44.506Z,16.50
2018-12-14T22:56:55.909Z,16.73
2018-12-14T22:59:06.362Z,16.07
2018-12-14T23:01:12.397Z,17.57
2018-12-14T23:03:23.203Z,17.70
2018-12-14T23:05:30.970Z,16.83
2018-12-14T23:07:36.949Z,17.30
2018-12-14T23:09:45.446Z,17.13
2018-12-14T23:11:50.574Z,18.10
2018-12-14T23:13:56.107Z,17.60
2018-12-14T23:16:00.901Z,17.53
2018-12-14T23:18:07.777Z,18.23
2018-12-14T23:20:11.878Z,18.80
2018-12-14T23:22:16.598Z,18.20
2018-12-14T23:24:21.662Z,17.47
2018-12-14T23:26:27.232Z,16.87
2018-12-14T23:28:33.150Z,16.50
2018-12-14T23:30:38.407Z,18.13
2018-12-14T23:32:43.859Z,16.93
2018-12-14T23:34:49.029Z,17.63
2018-12-14T23:36:53.285Z,16.50
2018-12-14T23:38:58.720Z,16.23
2018-12-14T23:41:10.006Z,16.90
2018-12-14T23:43:16.787Z,17.67
2018-12-14T23:45:24.350Z,17.87
2018-12-14T23:47:28.627Z,18.20
2018-12-14T23:49:33.147Z,18.63
2018-12-14T23:51:39.187Z,18.43
2018-12-14T23:53:43.726Z,18.23
2018-12-14T23:55:49.782Z,19.63
2018-12-14T23:57:54.400Z,18.27
2018-12-14T23:59:58.443Z,18.60
